createdAt,value
2022-09-05T00:02:25.447Z,7.12
2022-09-05T00:05:41.301Z,7.08
2022-09-05T00:08:42.347Z,7.09
2022-09-05T00:11:41.086Z,7.08
2022-09-05T00:15:15.300Z,7.10
2022-09-05T00:18:06.317Z,7.08
2022-09-05T00:24:26.770Z,7.05
2022-09-05T00:24:35.106Z,6.85
2022-09-05T00:26:39.031Z,7.01
2022-09-05T00:31:08.116Z,6.99
2022-09-05T00:32:45.153Z,6.96
2022-09-05T00:35:49.045Z,6.90
2022-09-05T00:38:18.411Z,6.94
2022-09-05T00:41:05.275Z,6.93
2022-09-05T00:43:47.079Z,6.85
2022-09-05T00:46:16.164Z,6.85
2022-09-05T00:49:04.785Z,6.89
2022-09-05T00:51:35.136Z,6.87
2022-09-05T00:54:02.038Z,6.87
2022-09-05T00:56:40.670Z,6.91
2022-09-05T00:59:28.885Z,6.96
2022-09-05T01:02:20.274Z,6.93
2022-09-05T01:05:24.771Z,6.89
2022-09-05T01:08:28.419Z,6.86
2022-09-05T01:11:32.850Z,6.84
2022-09-05T01:14:30.433Z,6.82
2022-09-05T01:17:12.634Z,6.85
2022-09-05T01:20:19.089Z,6.81
2022-09-05T01:23:35.135Z,6.78
2022-09-05T01:26:16.615Z,6.77
2022-09-05T01:29:17.128Z,6.71
2022-09-05T01:32:09.577Z,6.68
2022-09-05T01:35:13.669Z,6.70
2022-09-05T01:37:53.711Z,6.58
2022-09-05T01:40:59.006Z,6.69
2022-09-05T01:44:12.626Z,6.61
2022-09-05T01:47:01.840Z,6.66
2022-09-05T01:49:39.669Z,6.63
2022-09-05T01:52:57.250Z,6.75
2022-09-05T01:56:05.629Z,6.69
2022-09-05T01:59:15.472Z,6.74
2022-09-05T02:02:08.237Z,6.73
2022-09-05T02:05:04.578Z,6.68
2022-09-05T02:07:59.834Z,6.72
2022-09-05T02:10:45.219Z,6.74
2022-09-05T02:13:26.791Z,6.65
2022-09-05T02:16:01.732Z,6.67
2022-09-05T02:19:08.291Z,6.56
2022-09-05T02:21:56.562Z,6.66
2022-09-05T02:24:28.284Z,6.63
2022-09-05T02:27:06.119Z,6.53
2022-09-05T02:29:42.033Z,6.57
2022-09-05T02:32:28.295Z,6.54
2022-09-05T02:35:22.576Z,6.41
2022-09-05T02:39:19.975Z,6.46
2022-09-05T02:45:09.927Z,6.40
2022-09-05T02:45:21.087Z,6.47
2022-09-05T02:47:13.548Z,6.40
2022-09-05T02:52:03.847Z,6.50
2022-09-05T02:57:27.752Z,6.43
2022-09-05T02:57:35.417Z,6.43
2022-09-05T02:58:23.858Z,6.35
2022-09-05T03:01:11.949Z,6.31
2022-09-05T03:04:09.852Z,6.31
2022-09-05T03:07:07.294Z,6.33
2022-09-05T03:09:52.508Z,6.30
2022-09-05T03:12:56.294Z,6.32
2022-09-05T03:16:01.322Z,6.33
2022-09-05T03:19:08.292Z,6.35
2022-09-05T03:21:56.739Z,6.39
2022-09-05T03:24:56.013Z,6.45
2022-09-05T03:27:41.954Z,6.41
2022-09-05T03:30:46.644Z,6.41
2022-09-05T03:33:44.173Z,6.39
2022-09-05T03:36:25.206Z,6.35
2022-09-05T03:38:59.028Z,6.38
2022-09-05T03:42:02.692Z,6.34
2022-09-05T03:45:06.799Z,6.34
2022-09-05T03:47:44.350Z,6.41
2022-09-05T03:57:08.629Z,6.40
2022-09-05T03:57:17.966Z,6.48
2022-09-05T03:57:24.262Z,6.50
2022-09-05T03:59:36.071Z,6.56
2022-09-05T04:08:08.765Z,6.57
2022-09-05T04:08:17.039Z,6.56
2022-09-05T04:08:42.371Z,6.60
2022-09-05T04:11:44.357Z,6.60
2022-09-05T04:14:13.456Z,6.61
2022-09-05T04:16:52.454Z,6.62
2022-09-05T04:19:41.473Z,6.62
2022-09-05T04:22:19.660Z,6.57
2022-09-05T04:25:06.771Z,6.57
2022-09-05T04:27:58.209Z,6.66
2022-09-05T04:30:38.312Z,6.71
2022-09-05T04:33:22.211Z,6.63
2022-09-05T04:36:26.680Z,6.74
2022-09-05T04:39:18.353Z,6.74
2022-09-05T04:41:50.576Z,6.78
2022-09-05T04:44:26.724Z,6.78
2022-09-05T04:47:19.334Z,6.86
2022-09-05T04:49:55.034Z,6.96
2022-09-05T04:52:53.395Z,7.05
2022-09-05T04:55:20.214Z,7.05
2022-09-05T04:58:07.354Z,7.15
2022-09-05T05:05:58.297Z,7.26
2022-09-05T05:06:10.496Z,7.27
2022-09-05T05:06:46.054Z,7.41
2022-09-05T05:09:20.716Z,7.49
2022-09-05T05:17:53.919Z,7.52
2022-09-05T05:17:56.226Z,7.45
2022-09-05T05:18:06.384Z,7.56
2022-09-05T05:20:40.110Z,7.79
2022-09-05T05:23:13.678Z,7.96
2022-09-05T05:25:51.977Z,8.13
2022-09-05T05:28:28.639Z,8.25
2022-09-05T05:31:01.289Z,8.47
2022-09-05T05:33:32.167Z,8.68
2022-09-05T05:35:59.993Z,8.80
2022-09-05T05:38:38.854Z,8.89
2022-09-05T05:41:30.591Z,9.06
2022-09-05T05:43:59.222Z,9.20
2022-09-05T05:46:31.820Z,9.45
2022-09-05T05:49:36.231Z,9.68
2022-09-05T05:52:13.890Z,9.90
2022-09-05T05:55:52.989Z,10.08
2022-09-05T05:58:23.092Z,10.44
2022-09-05T06:01:21.930Z,10.78
2022-09-05T06:04:45.193Z,11.21
2022-09-05T06:09:14.131Z,11.55
2022-09-05T06:15:02.500Z,12.03
2022-09-05T06:15:06.733Z,11.85
2022-09-05T06:17:27.831Z,12.14
2022-09-05T06:22:06.137Z,12.10
2022-09-05T06:23:58.213Z,12.13
2022-09-05T06:26:44.136Z,12.21
2022-09-05T06:29:38.278Z,12.27
2022-09-05T06:32:18.818Z,12.36
2022-09-05T06:35:03.854Z,12.46
2022-09-05T06:37:58.110Z,12.48
2022-09-05T06:40:32.028Z,12.58
2022-09-05T06:43:23.713Z,12.85
2022-09-05T06:46:24.123Z,13.16
2022-09-05T06:49:31.081Z,13.53
2022-09-05T06:52:28.191Z,13.94
2022-09-05T06:55:19.832Z,14.38
2022-09-05T06:58:02.238Z,14.82
2022-09-05T07:00:50.718Z,15.29
2022-09-05T07:03:42.125Z,15.72
2022-09-05T07:06:49.411Z,16.02
2022-09-05T07:09:33.998Z,16.32
2022-09-05T07:12:00.779Z,16.42
2022-09-05T07:14:32.887Z,16.50
2022-09-05T07:17:30.658Z,16.61
2022-09-05T07:19:59.738Z,16.60
2022-09-05T07:22:51.734Z,16.46
2022-09-05T07:25:20.469Z,16.50
2022-09-05T07:28:26.642Z,16.67
2022-09-05T07:31:06.160Z,16.78
2022-09-05T07:33:33.083Z,16.79
2022-09-05T07:36:08.057Z,16.79
2022-09-05T07:38:45.537Z,16.76
2022-09-05T07:41:29.932Z,16.81
2022-09-05T07:44:00.004Z,16.79
2022-09-05T07:46:28.807Z,16.79
2022-09-05T07:49:17.030Z,16.75
2022-09-05T07:56:56.678Z,16.64
2022-09-05T07:57:00.271Z,16.58
2022-09-05T07:58:17.372Z,16.65
2022-09-05T08:00:44.366Z,16.66
2022-09-05T08:03:14.635Z,16.79
2022-09-05T08:05:44.014Z,16.90
2022-09-05T08:08:16.791Z,17.05
2022-09-05T08:11:22.822Z,17.08
2022-09-05T08:13:46.312Z,17.26
2022-09-05T08:16:15.863Z,17.50
2022-09-05T08:18:52.830Z,17.85
2022-09-05T08:21:42.175Z,18.38
2022-09-05T08:24:36.811Z,19.15
2022-09-05T08:27:20.507Z,19.91
2022-09-05T08:30:25.187Z,20.46
2022-09-05T08:32:49.875Z,20.92
2022-09-05T08:35:26.711Z,21.14
2022-09-05T08:37:54.532Z,20.95
2022-09-05T08:40:31.134Z,21.06
2022-09-05T08:45:29.033Z,21.11
2022-09-05T08:46:46.978Z,21.05
2022-09-05T08:49:38.592Z,20.78
2022-09-05T08:52:11.214Z,20.68
2022-09-05T08:55:07.180Z,20.52
2022-09-05T08:57:46.821Z,20.37
2022-09-05T09:00:24.496Z,20.33
2022-09-05T09:03:11.956Z,19.90
2022-09-05T09:06:14.216Z,19.67
2022-09-05T09:09:02.132Z,19.45
2022-09-05T09:11:41.273Z,19.45
2022-09-05T09:14:31.001Z,19.52
2022-09-05T09:16:58.259Z,19.64
2022-09-05T09:19:49.706Z,19.38
2022-09-05T09:22:52.080Z,19.21
2022-09-05T09:25:42.684Z,19.07
2022-09-05T09:28:48.391Z,19.11
2022-09-05T09:31:37.852Z,18.86
2022-09-05T09:34:10.447Z,18.70
2022-09-05T09:37:04.616Z,18.81
2022-09-05T09:39:39.722Z,18.89
2022-09-05T09:42:32.536Z,19.01
2022-09-05T09:45:22.800Z,19.13
2022-09-05T09:48:34.235Z,19.10
2022-09-05T09:51:12.238Z,19.10
2022-09-05T09:54:00.492Z,19.06
2022-09-05T09:57:08.949Z,18.99
2022-09-05T09:59:55.092Z,18.99
2022-09-05T10:04:30.999Z,18.90
2022-09-05T10:10:39.423Z,18.93
2022-09-05T10:10:54.222Z,19.06
2022-09-05T10:11:57.542Z,19.17
2022-09-05T10:14:55.789Z,19.67
2022-09-05T10:17:43.953Z,19.71
2022-09-05T10:20:14.850Z,19.75
2022-09-05T10:22:50.473Z,19.60
2022-09-05T10:25:51.596Z,19.37
2022-09-05T10:28:24.173Z,19.31
2022-09-05T10:33:03.787Z,19.39
2022-09-05T10:35:05.774Z,19.34
2022-09-05T10:36:55.149Z,19.36
2022-09-05T10:39:25.933Z,18.98
2022-09-05T10:42:15.544Z,18.57
2022-09-05T10:44:52.534Z,18.31
2022-09-05T10:47:53.170Z,20.78
2022-09-05T10:50:45.869Z,23.01
2022-09-05T10:53:39.356Z,23.94
2022-09-05T10:56:10.071Z,23.64
2022-09-05T11:00:52.114Z,23.65
2022-09-05T11:02:28.498Z,25.17
2022-09-05T11:04:58.115Z,25.43
2022-09-05T11:07:31.732Z,27.23
2022-09-05T11:10:37.696Z,27.82
2022-09-05T11:13:12.688Z,28.17
2022-09-05T11:16:16.247Z,29.07
2022-09-05T11:19:07.730Z,27.18
2022-09-05T11:22:13.787Z,26.29
2022-09-05T11:24:50.109Z,25.34
2022-09-05T11:27:24.587Z,24.45
2022-09-05T11:29:56.096Z,23.78
2022-09-05T11:33:44.448Z,23.81
2022-09-05T11:39:52.304Z,22.67
2022-09-05T11:39:57.799Z,23.23
2022-09-05T11:41:29.603Z,23.47
2022-09-05T11:44:25.030Z,24.41
2022-09-05T11:47:28.019Z,25.36
2022-09-05T11:50:08.954Z,25.96
2022-09-05T11:53:04.388Z,26.62
2022-09-05T11:55:43.234Z,27.70
2022-09-05T12:01:49.331Z,29.00
2022-09-05T12:05:49.517Z,29.80
2022-09-05T12:08:04.344Z,30.45
2022-09-05T12:10:46.283Z,30.58
2022-09-05T12:13:42.584Z,30.06
2022-09-05T12:16:55.630Z,29.30
2022-09-05T12:19:34.649Z,28.12
2022-09-05T12:22:26.903Z,27.29
2022-09-05T12:27:26.261Z,26.24
2022-09-05T12:29:29.722Z,25.68
2022-09-05T12:32:55.268Z,25.73
2022-09-05T12:36:07.739Z,26.58
2022-09-05T12:40:08.645Z,28.18
2022-09-05T12:40:54.115Z,28.08
2022-09-05T12:41:38.975Z,28.52
2022-09-05T12:44:16.918Z,28.70
2022-09-05T12:46:24.478Z,28.46
2022-09-05T12:49:06.988Z,29.49
2022-09-05T12:51:46.138Z,29.48
2022-09-05T12:54:33.991Z,28.47
2022-09-05T13:00:02.635Z,27.92
2022-09-05T13:02:59.373Z,27.31
2022-09-05T13:03:07.542Z,26.23
2022-09-05T13:06:03.594Z,25.11
2022-09-05T13:08:59.009Z,25.68
2022-09-05T13:14:54.651Z,26.86
2022-09-05T13:15:02.697Z,26.05
2022-09-05T13:17:31.256Z,26.93
2022-09-05T13:20:00.499Z,27.57
2022-09-05T13:22:27.426Z,26.99
2022-09-05T13:25:05.054Z,26.17
2022-09-05T13:27:34.637Z,24.89
2022-09-05T13:31:51.051Z,23.46
2022-09-05T13:38:03.040Z,23.06
2022-09-05T13:38:04.486Z,22.76
2022-09-05T13:39:02.534Z,22.69
2022-09-05T13:41:31.534Z,22.78
2022-09-05T13:44:00.506Z,22.80
2022-09-05T13:47:29.870Z,23.25
2022-09-05T13:50:20.017Z,23.90
2022-09-05T13:52:55.592Z,23.07
2022-09-05T13:56:03.192Z,22.54
2022-09-05T13:58:36.424Z,22.24
2022-09-05T14:01:28.391Z,22.22
2022-09-05T14:10:35.687Z,21.12
2022-09-05T14:13:14.337Z,20.77
2022-09-05T14:15:43.987Z,20.47
2022-09-05T14:19:04.123Z,20.82
2022-09-05T14:21:32.215Z,20.80
2022-09-05T14:24:27.503Z,20.88
2022-09-05T14:27:16.155Z,20.94
2022-09-05T14:29:55.114Z,20.42
2022-09-05T14:37:39.149Z,20.03
2022-09-05T14:37:41.352Z,19.49
2022-09-05T14:38:41.892Z,19.14
2022-09-05T14:42:03.682Z,19.00
2022-09-05T14:45:10.307Z,18.62
2022-09-05T14:47:55.380Z,18.53
2022-09-05T14:50:49.456Z,18.50
2022-09-05T14:56:50.150Z,18.33
2022-09-05T15:02:46.363Z,18.18
2022-09-05T15:02:49.443Z,18.12
2022-09-05T15:05:11.341Z,18.04
2022-09-05T15:07:49.122Z,17.83
2022-09-05T15:12:17.891Z,17.81
2022-09-05T15:13:11.509Z,17.72
2022-09-05T15:16:00.673Z,17.61
2022-09-05T15:18:31.788Z,17.47
2022-09-05T15:21:33.587Z,17.36
2022-09-05T15:24:31.713Z,17.03
2022-09-05T15:27:00.115Z,16.98
2022-09-05T15:29:31.817Z,16.73
2022-09-05T15:32:18.193Z,16.60
2022-09-05T15:34:45.012Z,16.36
2022-09-05T15:37:33.650Z,16.21
2022-09-05T15:40:04.258Z,15.92
2022-09-05T15:42:55.023Z,15.68
2022-09-05T15:45:29.905Z,15.38
2022-09-05T15:48:12.506Z,15.21
2022-09-05T15:50:44.443Z,15.02
2022-09-05T15:53:14.833Z,14.88
2022-09-05T15:55:46.773Z,14.74
2022-09-05T15:58:17.908Z,14.52
2022-09-05T16:00:51.279Z,14.51
2022-09-05T16:04:47.771Z,14.53
2022-09-05T16:10:30.171Z,14.59
2022-09-05T16:10:40.128Z,14.42
2022-09-05T16:14:39.569Z,14.28
2022-09-05T16:23:20.017Z,14.16
2022-09-05T16:23:34.513Z,14.04
2022-09-05T16:23:50.026Z,14.00
2022-09-05T16:26:12.512Z,13.93
2022-09-05T16:28:43.667Z,13.83
2022-09-05T16:31:18.005Z,13.78
2022-09-05T16:33:44.872Z,13.68
2022-09-05T16:36:16.105Z,13.72
2022-09-05T16:38:53.213Z,13.67
2022-09-05T16:41:42.798Z,13.53
2022-09-05T16:44:38.094Z,13.38
2022-09-05T16:47:04.912Z,13.29
2022-09-05T16:49:58.834Z,13.18
2022-09-05T16:52:53.617Z,13.08
2022-09-05T16:55:46.830Z,12.96
2022-09-05T16:58:36.234Z,12.81
2022-09-05T17:01:40.554Z,12.50
2022-09-05T17:04:29.958Z,12.12
2022-09-05T17:07:06.774Z,11.88
2022-09-05T17:09:36.598Z,11.79
2022-09-05T17:12:21.941Z,11.66
2022-09-05T17:14:53.271Z,11.53
2022-09-05T17:18:19.027Z,11.28
2022-09-05T17:20:21.163Z,11.27
2022-09-05T17:28:29.998Z,11.25
2022-09-05T17:29:24.590Z,11.41
2022-09-05T17:29:33.609Z,11.34
2022-09-05T17:31:59.202Z,11.30
2022-09-05T17:35:00.056Z,11.07
2022-09-05T17:37:50.463Z,10.82
2022-09-05T17:40:37.888Z,10.66
2022-09-05T17:43:28.816Z,10.57
2022-09-05T17:46:14.576Z,10.51
2022-09-05T17:49:16.158Z,10.40
2022-09-05T17:51:41.561Z,10.34
2022-09-05T17:54:27.591Z,10.34
2022-09-05T17:56:54.598Z,10.25
2022-09-05T17:59:22.233Z,10.23
2022-09-05T18:02:08.055Z,10.16
2022-09-05T18:04:54.131Z,10.08
2022-09-05T18:07:26.993Z,9.94
2022-09-05T18:10:15.259Z,9.81
2022-09-05T18:13:12.957Z,9.67
2022-09-05T18:15:40.926Z,9.73
2022-09-05T18:19:27.646Z,9.64
2022-09-05T18:21:21.184Z,9.62
2022-09-05T18:23:54.785Z,9.52
2022-09-05T18:26:23.592Z,9.29
2022-09-05T18:29:21.461Z,9.39
2022-09-05T18:31:58.932Z,9.29
2022-09-05T18:34:31.848Z,9.25
2022-09-05T18:36:59.176Z,9.17
2022-09-05T18:39:27.202Z,9.16
2022-09-05T18:42:33.978Z,9.10
2022-09-05T18:45:01.857Z,9.07
2022-09-05T18:47:55.668Z,9.09
2022-09-05T18:50:28.422Z,9.17
2022-09-05T18:53:09.490Z,9.10
2022-09-05T18:56:20.427Z,9.10
2022-09-05T18:59:13.240Z,9.02
2022-09-05T19:02:28.703Z,9.01
2022-09-05T19:05:00.952Z,8.95
2022-09-05T19:07:43.852Z,8.94
2022-09-05T19:10:35.664Z,8.91
2022-09-05T19:13:31.643Z,8.83
2022-09-05T19:16:42.801Z,8.80
2022-09-05T19:19:16.177Z,8.88
2022-09-05T19:22:07.100Z,8.78
2022-09-05T19:24:45.369Z,8.69
2022-09-05T19:28:48.562Z,8.70
2022-09-05T19:36:50.963Z,8.63
2022-09-05T19:36:53.899Z,8.55
2022-09-05T19:37:06.263Z,8.44
2022-09-05T19:38:22.507Z,8.37
2022-09-05T19:47:25.355Z,8.32
2022-09-05T19:47:43.035Z,8.19
2022-09-05T19:47:55.521Z,8.15
2022-09-05T19:49:10.773Z,8.19
2022-09-05T19:51:38.561Z,8.15
2022-09-05T19:54:06.066Z,8.15
2022-09-05T19:56:41.255Z,8.09
2022-09-05T19:59:44.378Z,7.97
2022-09-05T20:02:14.185Z,7.93
2022-09-05T20:04:55.993Z,7.94
2022-09-05T20:07:27.788Z,7.90
2022-09-05T20:09:56.286Z,7.83
2022-09-05T20:12:38.249Z,7.83
2022-09-05T20:15:42.199Z,7.81
2022-09-05T20:18:40.347Z,7.71
2022-09-05T20:21:29.942Z,7.71
2022-09-05T20:23:57.091Z,7.60
2022-09-05T20:26:28.645Z,7.64
2022-09-05T20:29:04.032Z,7.66
2022-09-05T20:31:33.333Z,7.60
2022-09-05T20:34:56.809Z,7.64
2022-09-05T20:43:08.765Z,7.56
2022-09-05T20:43:21.511Z,7.64
2022-09-05T20:43:28.126Z,7.57
2022-09-05T20:46:22.721Z,7.61
2022-09-05T20:54:04.547Z,7.61
2022-09-05T20:54:26.003Z,7.60
2022-09-05T20:54:34.995Z,7.55
2022-09-05T20:57:22.969Z,7.46
2022-09-05T20:59:49.854Z,7.43
2022-09-05T21:02:21.313Z,7.41
2022-09-05T21:05:19.828Z,7.29
2022-09-05T21:07:48.972Z,7.36
2022-09-05T21:10:19.914Z,7.31
2022-09-05T21:12:48.372Z,7.28
2022-09-05T21:15:40.656Z,7.31
2022-09-05T21:18:15.982Z,7.29
2022-09-05T21:20:55.069Z,7.21
2022-09-05T21:23:37.878Z,7.22
2022-09-05T21:26:06.435Z,7.20
2022-09-05T21:28:37.265Z,7.07
2022-09-05T21:31:10.633Z,6.99
2022-09-05T21:33:45.391Z,7.07
2022-09-05T21:36:13.800Z,7.02
2022-09-05T21:38:41.468Z,6.95
2022-09-05T21:41:08.511Z,6.92
2022-09-05T21:47:42.893Z,6.85
2022-09-05T21:47:49.553Z,6.94
2022-09-05T21:49:14.525Z,6.94
2022-09-05T21:51:41.416Z,6.89
2022-09-05T21:59:16.627Z,6.81
2022-09-05T21:59:17.484Z,6.84
2022-09-05T21:59:55.532Z,6.82
2022-09-05T22:02:23.923Z,6.82
2022-09-05T22:05:03.048Z,6.77
2022-09-05T22:07:32.846Z,6.81
2022-09-05T22:10:01.236Z,6.82
2022-09-05T22:12:36.018Z,6.77
2022-09-05T22:15:10.105Z,6.74
2022-09-05T22:17:51.413Z,6.64
2022-09-05T22:20:20.857Z,6.71
2022-09-05T22:22:56.546Z,6.64
2022-09-05T22:25:34.235Z,6.59
2022-09-05T22:28:14.359Z,6.57
2022-09-05T22:30:41.275Z,6.56
2022-09-05T22:33:08.172Z,6.50
2022-09-05T22:35:37.127Z,6.53
2022-09-05T22:38:10.876Z,6.47
2022-09-05T22:40:39.152Z,6.50
2022-09-05T22:43:07.608Z,6.55
2022-09-05T22:45:35.351Z,6.59
2022-09-05T22:48:10.223Z,6.53
2022-09-05T22:50:37.697Z,6.44
2022-09-05T22:53:07.168Z,6.45
2022-09-05T22:55:35.255Z,6.42
2022-09-05T22:58:03.005Z,6.45
2022-09-05T23:00:29.952Z,6.45
2022-09-05T23:02:58.313Z,6.43
2022-09-05T23:05:25.228Z,6.45
2022-09-05T23:07:52.119Z,6.48
2022-09-05T23:10:19.126Z,6.41
2022-09-05T23:12:46.250Z,6.59
2022-09-05T23:15:13.251Z,6.64
2022-09-05T23:17:40.117Z,6.72
2022-09-05T23:20:07.269Z,6.72
2022-09-05T23:22:36.088Z,6.80
2022-09-05T23:25:03.476Z,6.73
2022-09-05T23:27:35.405Z,6.73
2022-09-05T23:30:02.570Z,6.75
2022-09-05T23:32:29.471Z,6.72
2022-09-05T23:34:56.350Z,6.88
2022-09-05T23:37:23.188Z,7.01
2022-09-05T23:39:50.107Z,7.11
2022-09-05T23:42:17.055Z,7.26
2022-09-05T23:44:43.952Z,7.41
2022-09-05T23:47:10.833Z,7.55
2022-09-05T23:49:37.688Z,7.62
2022-09-05T23:52:04.611Z,7.62
2022-09-05T23:54:31.489Z,7.73
2022-09-05T23:56:58.369Z,7.58
2022-09-05T23:59:25.292Z,7.49
